Time;durP1;ratioP1;P1;durP2;ratioP2;P2;SDS_P1;SDS_P2;PMS_P1;PMS_P2;Temp;Humidity;BMP_temperature;BMP_pressure;BME280_temperature;BME280_humidity;BME280_pressure;Samples;Min_cycle;Max_cycle;Signal;HPM_P1;HPM_P2
2022/03/22 00:01:40;;;;;;;32.05;22.00;;;;;;;8.83;65.16;102475.09;5028579;28;20053;-83
2022/03/22 00:04:06;;;;;;;37.45;21.77;;;;;;;8.79;65.31;102479.69;5023243;28;20105;-83
2022/03/22 00:06:33;;;;;;;31.55;20.80;;;;;;;8.80;65.57;102472.69;5023150;28;20084;-82
2022/03/22 00:09:00;;;;;;;37.22;22.08;;;;;;;8.88;64.71;102481.69;5020959;28;20132;-83
2022/03/22 00:11:26;;;;;;;34.83;23.17;;;;;;;8.92;64.68;102483.19;5019782;28;20085;-83
2022/03/22 00:13:54;;;;;;;35.50;21.35;;;;;;;8.90;64.70;102479.00;5020590;28;20093;-83
2022/03/22 00:16:20;;;;;;;34.35;22.67;;;;;;;8.83;64.85;102478.53;5019546;28;20054;-83
2022/03/22 00:18:48;;;;;;;38.42;22.42;;;;;;;8.76;65.17;102468.59;5019407;28;20105;-83
2022/03/22 00:21:17;;;;;;;33.75;21.58;;;;;;;8.71;65.14;102478.50;5020023;28;20105;-84
2022/03/22 00:23:45;;;;;;;33.10;21.17;;;;;;;8.72;64.76;102473.19;5019710;28;20515;-83
2022/03/22 00:26:11;;;;;;;32.50;21.55;;;;;;;8.88;63.85;102475.63;5023482;28;20076;-83
2022/03/22 00:28:38;;;;;;;36.22;22.02;;;;;;;8.85;63.74;102484.50;5030299;28;20109;-83
2022/03/22 00:31:05;;;;;;;34.42;22.35;;;;;;;8.77;63.53;102473.72;5032452;28;20088;-84
2022/03/22 00:33:32;;;;;;;31.05;21.15;;;;;;;8.76;63.35;102477.25;5018156;28;20129;-83
2022/03/22 00:36:00;;;;;;;37.03;21.00;;;;;;;8.73;63.65;102485.28;5021556;28;20103;-83
2022/03/22 00:38:27;;;;;;;34.05;21.55;;;;;;;8.68;63.34;102479.53;5037001;28;20125;-82
2022/03/22 00:40:54;;;;;;;36.35;22.42;;;;;;;8.73;63.29;102481.84;5036516;28;20045;-83
2022/03/22 00:43:21;;;;;;;30.40;21.48;;;;;;;8.61;64.05;102483.47;5023568;28;20045;-82
2022/03/22 00:45:48;;;;;;;34.30;22.15;;;;;;;8.45;64.91;102485.41;5018884;28;20073;-83
2022/03/22 00:48:14;;;;;;;34.33;21.48;;;;;;;8.42;64.68;102477.75;5017628;28;20056;-81
2022/03/22 00:50:46;;;;;;;31.83;21.75;;;;;;;8.41;64.86;102484.75;5020681;28;20048;-81
2022/03/22 00:53:15;;;;;;;35.35;21.95;;;;;;;8.51;63.81;102487.59;5020490;28;20551;-82
2022/03/22 00:55:43;;;;;;;33.30;21.60;;;;;;;8.51;63.77;102484.97;5022093;28;20514;-82
2022/03/22 00:58:10;;;;;;;33.53;22.80;;;;;;;8.47;63.86;102486.97;5019742;28;20065;-82
2022/03/22 01:00:38;;;;;;;35.70;23.05;;;;;;;8.52;63.37;102486.66;5018724;28;20117;-82
2022/03/22 01:03:06;;;;;;;35.33;22.00;;;;;;;8.42;63.63;102489.03;5020118;28;20118;-83
2022/03/22 01:05:34;;;;;;;33.40;21.17;;;;;;;8.29;64.15;102488.09;5019835;28;20054;-82
2022/03/22 01:08:04;;;;;;;32.92;21.98;;;;;;;8.22;64.10;102490.25;5019978;28;20050;-83
2022/03/22 01:10:33;;;;;;;36.45;21.88;;;;;;;8.34;63.00;102491.28;5019920;28;20075;-82
2022/03/22 01:13:00;;;;;;;32.92;21.10;;;;;;;8.38;62.62;102481.50;5018845;28;20054;-82
2022/03/22 01:15:32;;;;;;;29.60;20.35;;;;;;;8.40;62.26;102482.22;5019609;28;20125;-82
2022/03/22 01:18:05;;;;;;;35.80;20.58;;;;;;;8.37;62.04;102482.44;5017674;28;20133;-80
2022/03/22 01:20:33;;;;;;;36.70;22.60;;;;;;;8.47;61.31;102481.75;5018160;28;20090;-82
2022/03/22 01:23:02;;;;;;;33.42;19.90;;;;;;;8.53;60.67;102481.34;5018090;28;20076;-83
2022/03/22 01:25:30;;;;;;;32.60;20.95;;;;;;;8.57;60.27;102481.97;5022338;28;20050;-84
2022/03/22 01:27:59;;;;;;;29.20;19.58;;;;;;;8.57;59.88;102484.59;5021988;28;20042;-82
2022/03/22 01:30:29;;;;;;;39.85;19.75;;;;;;;8.63;59.75;102481.59;5023306;28;20052;-84
2022/03/22 01:32:56;;;;;;;28.77;20.05;;;;;;;8.61;59.41;102478.25;5021506;28;20085;-81
2022/03/22 01:35:24;;;;;;;33.00;20.23;;;;;;;8.61;59.28;102473.84;5022581;28;20096;-80
2022/03/22 01:37:53;;;;;;;34.83;22.85;;;;;;;8.56;59.77;102472.47;5017558;28;20088;-79
2022/03/22 01:40:22;;;;;;;30.65;20.35;;;;;;;8.62;58.77;102470.31;5019309;28;20089;-82
2022/03/22 01:42:49;;;;;;;29.23;19.55;;;;;;;8.60;58.65;102466.97;5021133;28;20053;-82
2022/03/22 01:45:18;;;;;;;31.20;20.30;;;;;;;8.56;58.90;102477.69;5019834;28;20069;-81
2022/03/22 01:47:46;;;;;;;32.83;21.35;;;;;;;8.54;58.86;102476.97;5020755;28;20093;-82
2022/03/22 01:50:15;;;;;;;31.77;20.10;;;;;;;8.54;58.71;102476.97;5020736;28;20058;-81
2022/03/22 01:52:43;;;;;;;35.40;19.85;;;;;;;8.46;58.97;102484.47;5020281;28;20058;-81
2022/03/22 01:55:11;;;;;;;31.50;20.88;;;;;;;8.31;59.02;102475.78;5020206;28;20081;-80
2022/03/22 01:57:38;;;;;;;33.35;21.13;;;;;;;8.29;59.35;102475.03;5019853;28;20060;-81
2022/03/22 02:00:06;;;;;;;32.78;20.90;;;;;;;8.14;59.65;102469.00;5018754;28;20077;-81
2022/03/22 02:08:07;;;;;;;36.25;22.10;;;;;;;8.13;59.44;102472.53;5020407;28;20416;-81
2022/03/22 02:10:34;;;;;;;31.63;21.05;;;;;;;8.19;59.27;102466.97;5019817;28;20108;-81
2022/03/22 02:13:01;;;;;;;34.38;20.60;;;;;;;8.15;59.50;102456.81;5020863;28;20057;-81
2022/03/22 02:15:28;;;;;;;29.05;20.50;;;;;;;8.11;59.41;102463.16;5020445;28;20137;-82
2022/03/22 02:17:56;;;;;;;31.35;20.58;;;;;;;8.05;59.87;102459.16;5020493;28;20531;-81
2022/03/22 02:20:23;;;;;;;32.22;20.25;;;;;;;8.10;59.59;102466.69;5021821;28;20122;-82
2022/03/22 02:22:52;;;;;;;31.00;19.98;;;;;;;8.10;59.40;102462.31;5022810;28;20117;-82
2022/03/22 02:25:21;;;;;;;33.15;20.67;;;;;;;8.06;59.47;102460.81;5022752;28;20077;-82
2022/03/22 02:27:49;;;;;;;30.33;20.50;;;;;;;7.99;59.81;102457.78;5020874;28;20092;-82
2022/03/22 02:30:19;;;;;;;35.90;19.83;;;;;;;8.03;59.61;102455.81;5020453;28;20042;-82
2022/03/22 02:32:51;;;;;;;31.15;19.67;;;;;;;8.00;59.57;102461.22;5019655;28;20137;-82
2022/03/22 02:35:18;;;;;;;32.83;20.85;;;;;;;8.02;59.44;102453.31;5018818;28;20054;-81
2022/03/22 02:37:45;;;;;;;32.10;19.27;;;;;;;7.93;59.84;102457.31;5020814;28;20102;-83
2022/03/22 02:40:13;;;;;;;32.85;21.70;;;;;;;7.81;60.53;102465.88;5031827;28;20134;-83
2022/03/22 02:42:42;;;;;;;31.60;20.52;;;;;;;7.78;60.71;102450.44;5041083;28;20057;-84
2022/03/22 02:45:09;;;;;;;31.02;20.70;;;;;;;7.72;61.48;102461.22;5039986;28;20052;-82
2022/03/22 02:47:36;;;;;;;36.25;21.45;;;;;;;7.65;61.61;102463.34;5039288;28;20551;-83
2022/03/22 02:50:03;;;;;;;33.70;20.75;;;;;;;7.61;61.30;102465.31;5041503;28;20061;-83
2022/03/22 02:52:29;;;;;;;31.67;21.05;;;;;;;7.54;61.79;102458.81;5041603;28;20125;-82
2022/03/22 02:54:57;;;;;;;34.05;20.73;;;;;;;7.40;62.88;102458.78;5038472;28;20049;-82
2022/03/22 02:57:24;;;;;;;34.13;20.50;;;;;;;7.29;63.37;102458.59;5038678;28;20107;-82
2022/03/22 02:59:51;;;;;;;34.88;22.35;;;;;;;7.24;63.71;102466.66;5038526;28;20088;-82
2022/03/22 03:02:18;;;;;;;31.92;20.38;;;;;;;7.15;64.24;102455.94;5043629;28;20077;-82
2022/03/22 03:04:45;;;;;;;31.52;21.33;;;;;;;7.13;64.40;102458.63;5037107;28;20073;-82
2022/03/22 03:07:11;;;;;;;32.33;21.65;;;;;;;7.09;64.61;102458.94;5021013;28;20065;-83
2022/03/22 03:09:38;;;;;;;33.72;21.58;;;;;;;7.14;63.70;102462.06;5019954;28;20133;-82
2022/03/22 03:12:05;;;;;;;32.38;21.15;;;;;;;7.19;63.17;102465.25;5018195;28;20092;-82
2022/03/22 03:14:41;;;;;;;32.47;21.13;;;;;;;7.17;62.91;102464.50;5018127;28;20129;-81
2022/03/22 03:17:11;;;;;;;36.33;21.10;;;;;;;7.23;62.46;102464.16;5017565;28;20108;-81
2022/03/22 03:19:37;;;;;;;29.98;20.13;;;;;;;7.29;61.70;102469.00;5017341;28;20054;-83
2022/03/22 03:22:05;;;;;;;29.00;20.23;;;;;;;7.32;61.76;102461.00;5018888;28;20085;-82
2022/03/22 03:24:33;;;;;;;31.25;20.80;;;;;;;7.24;62.05;102466.66;5021552;28;20144;-82
2022/03/22 03:27:00;;;;;;;34.90;20.80;;;;;;;7.19;62.13;102473.06;5020811;28;20052;-82
2022/03/22 03:29:27;;;;;;;37.05;21.00;;;;;;;7.12;62.17;102471.72;5021146;28;20050;-81
2022/03/22 03:31:54;;;;;;;34.08;19.75;;;;;;;7.07;62.19;102460.78;5021719;28;20088;-82
2022/03/22 03:34:23;;;;;;;32.88;20.33;;;;;;;7.06;62.77;102472.94;5021933;28;20600;-82
2022/03/22 03:36:49;;;;;;;30.02;20.80;;;;;;;6.99;62.95;102476.84;5022158;28;20128;-82
2022/03/22 03:39:17;;;;;;;30.73;20.42;;;;;;;6.93;63.32;102488.44;5023092;28;20424;-82
2022/03/22 03:41:56;;;;;;;31.52;20.55;;;;;;;6.88;62.83;102474.84;5021489;28;20057;-82
2022/03/22 03:47:09;;;;;;;32.78;20.50;;;;;;;6.84;63.27;102473.31;5022215;28;20547;-81
2022/03/22 03:49:38;;;;;;;32.47;20.50;;;;;;;6.80;63.28;102477.03;5022490;28;20054;-82
2022/03/22 03:52:07;;;;;;;32.03;20.27;;;;;;;6.78;63.68;102472.84;5022016;28;20054;-82
2022/03/22 03:54:34;;;;;;;30.48;20.08;;;;;;;6.81;63.35;102478.72;5020758;28;20049;-81
2022/03/22 03:57:01;;;;;;;30.60;20.58;;;;;;;6.79;63.37;102480.56;5019986;28;20048;-81
2022/03/22 03:59:28;;;;;;;30.13;20.90;;;;;;;6.77;63.88;102476.34;5020095;28;20118;-81
2022/03/22 04:01:55;;;;;;;31.60;19.92;;;;;;;6.71;64.26;102477.53;5020784;28;20249;-81
2022/03/22 04:04:21;;;;;;;32.17;20.98;;;;;;;6.61;64.22;102476.41;5021270;28;20060;-82
2022/03/22 04:06:50;;;;;;;33.17;20.98;;;;;;;6.55;64.37;102481.94;5020512;28;20089;-82
2022/03/22 04:09:16;;;;;;;32.15;19.70;;;;;;;6.54;64.16;102470.69;5020733;28;20058;-81
2022/03/22 04:11:44;;;;;;;30.45;20.52;;;;;;;6.52;64.17;102479.50;5021620;28;20109;-81
2022/03/22 04:14:11;;;;;;;32.80;20.60;;;;;;;6.47;65.00;102489.31;5020821;28;20081;-82
2022/03/22 04:16:38;;;;;;;30.88;20.42;;;;;;;6.44;64.64;102484.28;5020421;28;20054;-81
2022/03/22 04:19:05;;;;;;;29.55;19.48;;;;;;;6.43;64.73;102490.41;5021023;28;20089;-82
2022/03/22 04:21:33;;;;;;;36.35;20.70;;;;;;;6.41;64.64;102493.09;5020356;28;20397;-82
2022/03/22 04:24:01;;;;;;;30.20;20.73;;;;;;;6.33;nan;102482.25;5020939;28;20053;-82
2022/03/22 04:26:27;;;;;;;32.38;21.33;;;;;;;6.32;65.46;102491.81;5021636;28;20069;-81
2022/03/22 04:34:38;;;;;;;33.72;20.77;;;;;;;6.20;65.32;102492.47;5018358;28;20061;-82
2022/03/22 04:37:06;;;;;;;31.85;20.92;;;;;;;6.11;66.28;102486.97;5019121;28;20050;-82
2022/03/22 04:39:35;;;;;;;31.70;21.42;;;;;;;6.08;65.97;102493.16;5069108;23;20081;-83
2022/03/22 04:42:03;;;;;;;33.65;20.15;;;;;;;5.97;66.90;102495.47;5026938;28;20050;-81
2022/03/22 04:44:29;;;;;;;32.35;20.65;;;;;;;5.99;66.57;102491.88;5026288;28;20058;-81
2022/03/22 04:46:57;;;;;;;29.75;19.88;;;;;;;6.09;65.87;102494.84;5023757;28;20064;-84
2022/03/22 04:49:25;;;;;;;30.20;20.48;;;;;;;6.17;64.70;102494.41;5024293;28;20061;-83
2022/03/22 04:57:22;;;;;;;29.27;19.95;;;;;;;6.22;63.89;102490.63;5029476;28;20141;-84
2022/03/22 04:59:49;;;;;;;34.83;19.55;;;;;;;6.26;63.29;102486.97;5020050;28;20104;-84
2022/03/22 05:02:15;;;;;;;34.60;21.85;;;;;;;6.32;63.44;102497.03;5021078;28;20153;-84
2022/03/22 05:04:43;;;;;;;32.42;19.23;;;;;;;6.39;62.37;102499.31;5020370;28;20041;-83
2022/03/22 05:07:10;;;;;;;33.60;19.38;;;;;;;6.42;62.01;102499.97;5025990;28;20064;-82
2022/03/22 05:09:38;;;;;;;33.53;19.17;;;;;;;6.41;62.38;102493.09;5020369;28;20137;-82
2022/03/22 05:12:06;;;;;;;31.10;19.92;;;;;;;6.39;62.13;102502.75;5025982;28;20250;-82
2022/03/22 05:14:34;;;;;;;31.42;19.48;;;;;;;6.32;62.32;102497.03;5026963;28;20056;-83
2022/03/22 05:17:01;;;;;;;34.17;19.85;;;;;;;6.26;62.67;102496.50;5029847;28;20077;-83
2022/03/22 05:19:28;;;;;;;32.85;19.77;;;;;;;6.27;62.98;102511.19;5029941;28;20072;-83
2022/03/22 05:21:55;;;;;;;30.48;19.80;;;;;;;6.29;62.35;102512.78;5024745;28;20081;-81
2022/03/22 05:24:22;;;;;;;29.48;19.15;;;;;;;6.17;62.91;102508.25;5025581;28;20054;-82
2022/03/22 05:26:50;;;;;;;31.45;18.42;;;;;;;6.12;63.88;102520.66;5019060;28;20053;-82
2022/03/22 05:29:17;;;;;;;32.65;19.88;;;;;;;6.03;64.22;102515.94;5022653;28;20053;-82
2022/03/22 05:31:45;;;;;;;28.33;19.58;;;;;;;5.94;65.50;102525.06;5022403;28;20049;-82
2022/03/22 05:34:12;;;;;;;28.27;19.98;;;;;;;5.96;65.27;102523.22;5021353;28;20064;-82
2022/03/22 05:36:38;;;;;;;29.63;20.50;;;;;;;5.90;65.39;102520.09;5019085;28;20089;-82
2022/03/22 05:39:05;;;;;;;29.55;19.00;;;;;;;5.89;64.90;102527.06;5020934;28;20057;-84
2022/03/22 05:41:32;;;;;;;31.35;21.77;;;;;;;5.89;64.43;102529.66;5025370;28;20125;-83
2022/03/22 05:44:00;;;;;;;32.08;20.25;;;;;;;5.95;64.64;102533.69;5023381;28;20049;-83
2022/03/22 05:46:30;;;;;;;33.67;19.50;;;;;;;5.94;64.81;102530.25;5022536;28;20054;-83
2022/03/22 05:48:57;;;;;;;30.05;19.42;;;;;;;5.97;64.83;102537.06;5023388;28;20141;-83
2022/03/22 05:51:24;;;;;;;35.08;19.33;;;;;;;5.97;64.18;102535.31;5026803;28;20045;-83
2022/03/22 05:53:52;;;;;;;30.95;18.80;;;;;;;6.02;63.65;102536.81;5022692;28;20084;-83
2022/03/22 05:56:18;;;;;;;31.85;19.13;;;;;;;6.01;63.44;102533.38;5021827;28;20050;-82
2022/03/22 05:58:47;;;;;;;29.50;19.65;;;;;;;6.06;63.21;102533.16;5020432;28;20065;-82
2022/03/22 06:01:18;;;;;;;28.02;18.85;;;;;;;6.19;62.69;102532.41;5022100;28;20436;-82
2022/03/22 06:03:50;;;;;;;34.15;18.38;;;;;;;6.18;62.34;102532.47;5024140;28;20097;-83
2022/03/22 06:06:28;;;;;;;34.05;19.02;;;;;;;6.23;62.03;102538.28;5022847;28;20041;-83
2022/03/22 06:09:00;;;;;;;27.20;18.23;;;;;;;6.26;62.04;102538.94;5022836;28;20054;-82
2022/03/22 06:11:28;;;;;;;33.80;19.13;;;;;;;6.30;61.33;102555.22;5017888;28;20049;-81
2022/03/22 06:13:55;;;;;;;31.02;19.10;;;;;;;6.36;61.02;102543.66;5020506;28;20191;-82
2022/03/22 06:16:24;;;;;;;29.75;19.33;;;;;;;6.44;61.17;102550.13;5020996;28;20128;-81
2022/03/22 06:18:54;;;;;;;36.08;18.88;;;;;;;6.50;61.21;102538.56;5021547;28;20049;-81
2022/03/22 06:21:23;;;;;;;31.42;18.55;;;;;;;6.55;60.66;102541.75;5023351;28;20057;-82
2022/03/22 06:23:52;;;;;;;30.63;19.33;;;;;;;6.66;60.64;102557.59;5023111;28;20042;-82
2022/03/22 06:26:22;;;;;;;29.52;19.52;;;;;;;6.82;59.88;102547.19;5021454;28;20085;-81
2022/03/22 06:28:54;;;;;;;31.20;18.80;;;;;;;7.32;57.55;102536.53;5021658;28;20077;-82
2022/03/22 06:31:24;;;;;;;27.88;17.35;;;;;;;7.80;55.44;102542.38;5022397;28;20109;-82
2022/03/22 06:34:04;;;;;;;25.95;17.65;;;;;;;8.10;54.84;102545.75;5022534;28;20050;-81
2022/03/22 06:37:13;;;;;;;31.42;18.75;;;;;;;8.45;53.45;102540.19;5020776;28;20141;-84
2022/03/22 06:39:40;;;;;;;29.08;19.35;;;;;;;8.88;52.85;102548.75;5020316;28;20054;-82
2022/03/22 06:42:07;;;;;;;31.35;22.67;;;;;;;9.27;51.06;102555.75;5021430;28;20081;-81
2022/03/22 06:44:40;;;;;;;31.42;19.10;;;;;;;9.61;51.25;102555.19;5021560;28;20133;-81
2022/03/22 06:47:07;;;;;;;31.15;18.00;;;;;;;9.76;49.92;102558.53;5017495;28;20050;-80
2022/03/22 06:49:35;;;;;;;31.75;18.77;;;;;;;9.78;50.11;102558.44;5015049;28;20067;-80
2022/03/22 06:52:02;;;;;;;33.08;19.08;;;;;;;9.91;50.23;102562.75;5015997;28;20058;-81
2022/03/22 06:54:28;;;;;;;31.80;19.15;;;;;;;10.17;49.67;102571.41;5027052;28;20053;-82
2022/03/22 06:56:57;;;;;;;35.88;19.83;;;;;;;10.37;49.19;102566.59;5030599;28;20118;-82
2022/03/22 06:59:25;;;;;;;28.38;18.60;;;;;;;10.38;49.46;102561.25;5035166;28;20105;-82
2022/03/22 07:01:55;;;;;;;25.60;17.80;;;;;;;10.69;48.81;102569.53;5034690;28;20106;-82
2022/03/22 07:04:21;;;;;;;31.13;18.98;;;;;;;10.82;49.28;102565.94;5034997;28;20052;-81
2022/03/22 07:06:49;;;;;;;32.28;20.00;;;;;;;11.03;48.25;102553.06;5030558;28;20050;-81
2022/03/22 07:09:18;;;;;;;31.48;19.38;;;;;;;11.13;47.80;102568.94;5032275;28;20091;-82
2022/03/22 07:11:51;;;;;;;25.98;19.52;;;;;;;11.38;46.98;102562.72;5032353;28;20069;-82
2022/03/22 07:24:11;;;;;;;25.75;18.02;;;;;;;11.38;46.41;102542.56;5023205;28;20065;-82
2022/03/22 07:26:52;;;;;;;25.27;18.15;;;;;;;11.58;44.95;102559.44;5013892;28;20064;-81
2022/03/22 07:30:01;;;;;;;26.45;18.80;;;;;;;11.45;45.43;102561.31;5023395;28;20120;-81
2022/03/22 07:35:45;;;;;;;27.00;17.80;;;;;;;11.39;44.53;102544.25;5016775;28;20092;-81
2022/03/22 07:38:12;;;;;;;30.67;18.33;;;;;;;11.37;44.42;102567.13;5021319;28;20183;-81
2022/03/22 07:40:45;;;;;;;28.92;18.02;;;;;;;11.64;44.67;102564.22;5025536;28;20481;-81
2022/03/22 07:43:12;;;;;;;31.17;18.27;;;;;;;11.71;44.95;102569.84;5021851;28;20046;-81
2022/03/22 07:45:50;;;;;;;25.90;18.45;;;;;;;11.67;44.20;102555.28;5022643;28;20049;-81
2022/03/22 07:48:20;;;;;;;36.38;18.65;;;;;;;11.71;43.86;102551.50;5020687;28;20168;-81
2022/03/22 07:53:33;;;;;;;29.02;17.52;;;;;;;12.45;42.92;102565.84;5020388;28;20092;-81
2022/03/22 07:56:03;;;;;;;29.92;19.27;;;;;;;12.19;42.17;102560.88;5020175;28;20516;-80
2022/03/22 07:58:29;;;;;;;27.00;17.20;;;;;;;12.76;41.60;102582.66;5019581;28;20487;-81
2022/03/22 08:00:57;;;;;;;28.25;17.83;;;;;;;13.02;41.62;102585.78;5020504;28;20053;-80
2022/03/22 08:03:26;;;;;;;30.10;18.17;;;;;;;13.37;40.49;102575.03;5020410;28;20050;-81
2022/03/22 08:05:54;;;;;;;24.55;18.13;;;;;;;13.27;39.78;102574.94;5020434;28;20132;-81
2022/03/22 08:08:21;;;;;;;25.55;17.70;;;;;;;13.24;39.27;102564.69;5020338;28;20096;-82
2022/03/22 08:11:39;;;;;;;28.25;18.02;;;;;;;13.46;38.95;102553.25;5024344;28;20045;-85
2022/03/22 08:14:05;;;;;;;24.75;17.58;;;;;;;13.97;37.29;102563.78;4923069;29;20064;-82
2022/03/22 08:16:33;;;;;;;23.58;17.70;;;;;;;13.44;38.42;102569.13;5015150;28;20082;-81
2022/03/22 08:18:59;;;;;;;26.20;18.63;;;;;;;13.29;39.05;102567.78;5024473;28;20070;-83
2022/03/22 08:21:27;;;;;;;24.95;17.42;;;;;;;13.43;38.37;102580.63;5024140;28;20072;-81
2022/03/22 08:23:54;;;;;;;24.67;18.00;;;;;;;13.01;38.78;102568.34;5024324;28;20065;-81
2022/03/22 08:26:21;;;;;;;26.90;18.05;;;;;;;13.52;38.76;102584.28;5024165;28;20046;-81
2022/03/22 08:28:49;;;;;;;21.58;16.08;;;;;;;13.69;37.31;102580.25;5024659;28;20045;-82
2022/03/22 08:31:16;;;;;;;33.67;17.40;;;;;;;14.15;35.94;102572.75;5031312;28;20089;-81
2022/03/22 08:34:19;;;;;;;25.42;16.95;;;;;;;13.87;36.44;102557.63;5032663;28;20064;-84
2022/03/22 08:36:46;;;;;;;31.83;18.30;;;;;;;14.71;36.08;102558.22;5020249;28;20084;-81
2022/03/22 08:39:12;;;;;;;25.48;17.67;;;;;;;13.90;36.15;102565.25;5036074;28;20034;-82
2022/03/22 08:41:39;;;;;;;26.23;16.55;;;;;;;14.38;35.68;102560.19;5035636;28;20049;-83
2022/03/22 08:44:07;;;;;;;25.77;16.63;;;;;;;14.44;34.64;102572.88;5035948;28;20113;-82
2022/03/22 08:46:37;;;;;;;23.00;17.95;;;;;;;14.31;35.15;102552.97;5036417;28;20479;-82
2022/03/22 08:49:04;;;;;;;32.45;17.10;;;;;;;13.74;35.25;102557.81;5035316;28;20118;-81
2022/03/22 08:51:32;;;;;;;33.42;17.10;;;;;;;13.88;35.37;102551.41;5029000;28;20053;-81
2022/03/22 08:53:59;;;;;;;23.95;16.08;;;;;;;14.09;35.30;102568.00;5027921;28;20104;-81
2022/03/22 08:56:25;;;;;;;23.75;16.05;;;;;;;14.10;35.11;102569.66;5027891;28;20432;-80
2022/03/22 08:58:55;;;;;;;23.27;16.25;;;;;;;14.18;34.76;102567.19;5028028;28;20050;-81
2022/03/22 09:01:27;;;;;;;30.80;17.02;;;;;;;14.69;34.00;102546.97;5022015;28;20046;-81
2022/03/22 09:06:40;;;;;;;23.80;16.55;;;;;;;14.55;34.94;102556.13;5018264;28;20100;-82
2022/03/22 09:09:10;;;;;;;23.42;16.38;;;;;;;14.45;33.06;102560.53;5017797;28;20124;-82
2022/03/22 09:11:37;;;;;;;23.33;16.17;;;;;;;14.36;33.66;102569.19;5017204;28;20049;-82
2022/03/22 09:14:04;;;;;;;23.23;16.50;;;;;;;14.27;33.51;102561.13;5019605;28;20052;-81
2022/03/22 09:16:35;;;;;;;23.67;17.52;;;;;;;14.64;34.16;102557.13;5017112;28;20117;-82
2022/03/22 09:19:02;;;;;;;24.33;16.27;;;;;;;14.91;33.71;102558.13;5017768;28;20050;-82
2022/03/22 09:21:30;;;;;;;20.50;16.20;;;;;;;14.28;32.88;102562.78;5016818;28;20065;-82
2022/03/22 09:30:49;;;;;;;21.77;16.98;;;;;;;14.12;34.16;102561.63;4844577;29;20147;-82
2022/03/22 09:33:20;;;;;;;23.75;16.70;;;;;;;14.11;34.53;102539.75;4918490;29;20090;-82
2022/03/22 09:35:49;;;;;;;22.63;16.88;;;;;;;13.99;33.78;102546.06;4975612;28;20563;-82
2022/03/22 09:38:19;;;;;;;21.92;16.52;;;;;;;14.34;33.81;102523.72;5015357;28;20453;-82
2022/03/22 09:40:48;;;;;;;21.90;16.88;;;;;;;14.33;33.67;102533.44;5021912;28;20113;-84
2022/03/22 09:43:23;;;;;;;23.48;16.67;;;;;;;14.13;33.39;102542.25;5019095;28;20050;-82
2022/03/22 09:45:52;;;;;;;20.67;15.85;;;;;;;14.54;33.45;102536.03;5015070;28;20408;-82
2022/03/22 09:48:20;;;;;;;25.60;16.92;;;;;;;14.59;33.61;102539.09;5013790;28;20143;-83
2022/03/22 09:53:31;;;;;;;24.17;17.08;;;;;;;14.79;32.13;102526.75;5016974;28;20057;-84
2022/03/22 09:55:58;;;;;;;24.95;16.60;;;;;;;14.80;32.28;102531.88;5016874;28;20057;-84
2022/03/22 09:58:29;;;;;;;24.30;16.48;;;;;;;15.30;32.35;102534.38;5016287;28;20045;-83
2022/03/22 10:03:38;;;;;;;21.00;15.50;;;;;;;15.26;31.30;102533.00;5014979;28;20050;-83
2022/03/22 10:06:07;;;;;;;22.95;15.98;;;;;;;15.29;31.37;102514.25;5020420;28;20072;-85
2022/03/22 10:08:51;;;;;;;21.85;15.70;;;;;;;15.57;31.82;102508.13;5019504;28;20084;-84
2022/03/22 10:11:20;;;;;;;26.02;16.42;;;;;;;15.69;32.41;102518.47;5020377;28;20057;-84
2022/03/22 10:16:56;;;;;;;24.48;15.95;;;;;;;15.37;30.83;102503.00;5017278;28;20396;-83
2022/03/22 10:19:28;;;;;;;25.45;16.25;;;;;;;15.53;31.08;102530.47;5018901;28;20229;-83
2022/03/22 10:21:57;;;;;;;22.10;15.33;;;;;;;15.71;30.89;102522.66;5021140;28;20042;-84
2022/03/22 10:24:37;;;;;;;28.55;16.92;;;;;;;15.53;29.94;102509.34;5020254;28;20384;-83
2022/03/22 10:27:52;;;;;;;20.77;15.13;;;;;;;15.53;29.30;102504.06;5018352;28;20053;-83
2022/03/22 10:33:09;;;;;;;23.42;16.25;;;;;;;15.80;29.86;102500.66;4981664;28;20504;-83
2022/03/22 10:35:47;;;;;;;22.48;15.63;;;;;;;15.72;28.41;102511.13;4982729;28;20050;-83
2022/03/22 10:38:19;;;;;;;25.63;16.05;;;;;;;16.30;29.81;102502.09;4966990;28;20055;-83
2022/03/22 10:40:49;;;;;;;20.20;14.65;;;;;;;16.21;27.86;102499.34;4952485;29;20051;-83
2022/03/22 10:43:23;;;;;;;20.65;14.80;;;;;;;15.58;27.37;102503.69;4927344;29;20371;-82
2022/03/22 10:46:16;;;;;;;21.20;14.90;;;;;;;15.97;28.64;102493.81;4955700;29;20190;-84
2022/03/22 10:51:46;;;;;;;21.40;14.88;;;;;;;16.67;28.28;102499.38;4966078;29;20058;-83
2022/03/22 10:54:21;;;;;;;21.35;14.93;;;;;;;17.03;27.74;102494.91;4945945;29;20051;-83
2022/03/22 10:56:53;;;;;;;20.83;15.02;;;;;;;16.90;27.71;102496.13;4962513;29;20508;-84
2022/03/22 10:59:22;;;;;;;;;;;;;;;16.89;24.94;102499.75;4997132;23;20041;-81
2022/03/22 11:01:50;;;;;;;19.85;12.88;;;;;;;16.88;24.73;102503.38;5012368;28;19972;-81
2022/03/22 11:07:18;;;;;;;20.70;13.73;;;;;;;17.19;26.05;102471.22;5011048;28;20544;-82
2022/03/22 11:16:39;;;;;;;18.17;12.65;;;;;;;16.85;24.70;102471.13;4995104;28;20142;-79
2022/03/22 11:23:12;;;;;;;20.25;13.68;;;;;;;16.59;24.70;102476.31;4872834;29;20053;-80
2022/03/22 11:25:39;;;;;;;21.42;13.10;;;;;;;16.69;25.42;102469.16;4880467;29;20057;-80
2022/03/22 11:34:34;;;;;;;22.27;13.40;;;;;;;17.25;24.65;102468.78;4866652;29;20066;-78
2022/03/22 11:37:02;;;;;;;19.05;12.88;;;;;;;17.32;25.63;102470.81;4960694;28;20134;-78
2022/03/22 11:42:19;;;;;;;18.63;13.52;;;;;;;17.54;24.30;102460.50;4998477;28;20417;-79
2022/03/22 11:44:56;;;;;;;18.58;13.82;;;;;;;17.19;24.67;102456.19;4998832;28;20098;-79
2022/03/22 11:47:23;;;;;;;19.80;13.32;;;;;;;17.43;24.99;102450.22;4997990;28;20046;-79
2022/03/22 11:49:52;;;;;;;21.75;15.35;;;;;;;17.02;25.47;102450.91;4998212;28;20065;-79
2022/03/22 11:52:20;;;;;;;20.50;13.60;;;;;;;17.10;25.19;102443.88;5002240;28;20144;-81
2022/03/22 11:54:57;;;;;;;17.95;14.82;;;;;;;17.28;25.17;102445.66;5006666;28;20057;-80
2022/03/22 11:57:24;;;;;;;19.50;14.45;;;;;;;17.23;25.34;102446.94;5006439;28;20042;-80
2022/03/22 11:59:52;;;;;;;20.33;15.13;;;;;;;17.29;24.98;102442.84;4990459;28;20137;-79
2022/03/22 12:02:21;;;;;;;22.80;14.80;;;;;;;17.43;25.04;102436.16;4999722;28;20081;-80
2022/03/22 12:04:51;;;;;;;21.52;14.50;;;;;;;17.31;25.55;102440.88;4998419;28;20146;-80
2022/03/22 12:07:23;;;;;;;20.92;14.50;;;;;;;17.06;25.90;102441.69;4998648;28;20050;-80
2022/03/22 12:09:50;;;;;;;21.20;15.40;;;;;;;17.41;25.83;102446.06;4997857;28;20054;-79
2022/03/22 12:12:19;;;;;;;23.95;15.95;;;;;;;17.24;25.57;102440.66;4998120;28;20050;-79
2022/03/22 12:14:49;;;;;;;22.52;15.38;;;;;;;17.38;25.14;102436.63;4998294;28;20106;-78
2022/03/22 12:17:17;;;;;;;21.35;16.27;;;;;;;17.74;25.74;102436.50;4996836;28;20405;-80
2022/03/22 12:19:44;;;;;;;25.98;16.23;;;;;;;17.58;26.11;102426.63;4997689;28;20052;-80
2022/03/22 12:22:11;;;;;;;18.90;13.50;;;;;;;17.48;25.23;102421.47;4997497;28;20081;-80
2022/03/22 12:24:39;;;;;;;20.90;14.13;;;;;;;17.67;25.74;102417.75;4998226;28;20437;-80
2022/03/22 12:27:08;;;;;;;17.92;14.55;;;;;;;17.59;25.23;102417.69;4999008;28;20050;-81
2022/03/22 12:29:40;;;;;;;21.05;14.68;;;;;;;17.82;25.29;102404.75;4994644;28;20046;-81
2022/03/22 12:32:13;;;;;;;19.98;15.02;;;;;;;17.66;25.29;102412.63;4997782;28;20054;-81
2022/03/22 12:34:40;;;;;;;;;;;;;;;17.80;25.25;102409.38;4999630;28;20081;-80
2022/03/22 12:37:15;;;;;;;23.23;14.23;;;;;;;17.54;26.08;102404.94;5002135;28;20332;-80
2022/03/22 12:39:47;;;;;;;17.77;13.95;;;;;;;17.80;25.97;102399.63;4998653;28;20050;-79
2022/03/22 12:42:15;;;;;;;19.30;13.63;;;;;;;17.83;25.75;102395.81;4999350;28;20136;-79
2022/03/22 12:44:47;;;;;;;17.85;13.38;;;;;;;17.98;26.27;102388.06;4995212;28;20180;-79
2022/03/22 12:47:13;;;;;;;19.02;13.32;;;;;;;18.09;25.75;102399.19;4997211;28;20058;-78